Time;durP1;ratioP1;P1;durP2;ratioP2;P2;SDS_P1;SDS_P2;PMS_P1;PMS_P2;Temp;Humidity;BMP_temperature;BMP_pressure;BME280_temperature;BME280_humidity;BME280_pressure;Samples;Min_cycle;Max_cycle;Signal;HPM_P1;HPM_P2
2022/08/02 00:01:28;;;;;;;2.60;1.30;;;;;;;18.65;74.34;100886.66;5019697;28;20052;-79
2022/08/02 00:03:53;;;;;;;1.40;1.13;;;;;;;18.63;74.04;100890.97;5020580;28;20037;-79
2022/08/02 00:06:19;;;;;;;1.55;1.00;;;;;;;18.60;74.04;100888.84;5000947;28;20060;-79
2022/08/02 00:08:44;;;;;;;1.83;1.02;;;;;;;18.58;73.96;100883.53;5004045;28;20032;-78
2022/08/02 00:11:10;;;;;;;2.00;1.20;;;;;;;18.54;73.91;100877.78;5004179;28;20040;-79
2022/08/02 00:13:35;;;;;;;1.40;1.10;;;;;;;18.53;74.11;100878.97;5004293;28;20107;-79
2022/08/02 00:16:01;;;;;;;2.25;1.10;;;;;;;18.49;73.88;100879.97;5004040;28;20029;-79
2022/08/02 00:18:26;;;;;;;2.95;1.10;;;;;;;18.47;74.61;100877.50;4987785;28;20021;-79
2022/08/02 00:20:52;;;;;;;3.60;1.20;;;;;;;18.44;74.61;100871.72;4999843;28;20029;-79
2022/08/02 00:23:17;;;;;;;2.97;1.10;;;;;;;18.42;74.15;100876.88;5003909;28;20091;-79
2022/08/02 00:25:43;;;;;;;1.73;1.10;;;;;;;18.37;74.46;100871.44;5020116;28;20041;-79
2022/08/02 00:28:10;;;;;;;1.75;1.15;;;;;;;18.35;74.66;100868.94;5004253;28;20536;-79
2022/08/02 00:30:36;;;;;;;2.05;1.20;;;;;;;18.30;74.71;100871.94;5004180;28;20048;-80
2022/08/02 00:33:01;;;;;;;4.47;1.45;;;;;;;18.27;75.17;100862.19;5003537;28;20026;-79
2022/08/02 00:35:27;;;;;;;1.52;1.20;;;;;;;18.25;74.67;100860.91;5019576;28;20041;-79
2022/08/02 00:37:53;;;;;;;1.92;1.13;;;;;;;18.23;75.03;100857.59;5019908;28;20026;-79
2022/08/02 00:40:20;;;;;;;1.40;1.30;;;;;;;18.19;74.82;100856.59;5003471;28;20030;-79
2022/08/02 00:42:46;;;;;;;2.22;1.27;;;;;;;18.18;74.98;100857.78;5003525;28;20103;-79
2022/08/02 00:45:11;;;;;;;1.67;1.20;;;;;;;18.16;74.89;100858.09;5019413;28;20037;-79
2022/08/02 00:47:37;;;;;;;1.77;1.20;;;;;;;18.14;75.26;100868.06;5036464;28;20056;-79
2022/08/02 00:50:03;;;;;;;1.75;1.30;;;;;;;18.10;75.35;100865.06;5019305;28;20079;-79
2022/08/02 00:52:28;;;;;;;1.23;1.00;;;;;;;18.09;74.98;100863.44;4987186;28;20140;-79
2022/08/02 00:54:54;;;;;;;1.73;1.30;;;;;;;18.07;75.02;100866.56;5019431;28;20018;-79
2022/08/02 00:57:19;;;;;;;1.60;1.20;;;;;;;18.04;75.36;100863.63;4986713;28;20398;-79
2022/08/02 00:59:45;;;;;;;1.73;1.20;;;;;;;18.03;75.60;100856.38;4986521;28;20041;-79
2022/08/02 01:02:10;;;;;;;1.50;1.20;;;;;;;18.00;75.73;100860.66;5019548;28;20095;-79
2022/08/02 01:04:35;;;;;;;3.00;1.10;;;;;;;17.96;75.56;100854.06;5003260;28;20029;-79
2022/08/02 01:07:05;;;;;;;1.40;1.15;;;;;;;17.93;75.54;100865.16;5052597;28;20029;-79
2022/08/02 01:09:30;;;;;;;2.15;1.00;;;;;;;17.91;75.87;100862.66;4987559;28;20068;-79
2022/08/02 01:11:56;;;;;;;1.33;1.23;;;;;;;17.91;76.10;100865.47;5019297;28;20084;-79
2022/08/02 01:14:23;;;;;;;2.70;1.27;;;;;;;17.90;75.88;100861.03;5003013;28;20032;-79
2022/08/02 01:17:08;;;;;;;1.48;1.00;;;;;;;17.85;75.96;100866.81;5007960;28;20036;-79
2022/08/02 01:19:53;;;;;;;3.15;1.10;;;;;;;17.83;75.69;100867.16;5010909;28;20478;-79
2022/08/02 01:22:34;;;;;;;2.20;1.10;;;;;;;17.81;75.72;100861.03;5019041;28;20033;-80
2022/08/02 01:25:27;;;;;;;2.65;1.30;;;;;;;17.79;76.25;100851.31;5019058;28;20128;-79
2022/08/02 01:28:08;;;;;;;1.67;1.20;;;;;;;17.78;76.11;100846.81;5029116;28;20497;-79
2022/08/02 01:30:33;;;;;;;2.40;1.25;;;;;;;17.76;76.05;100847.16;5018797;28;20033;-79
2022/08/02 01:32:59;;;;;;;1.30;1.08;;;;;;;17.72;76.47;100846.19;5035281;28;20605;-79
2022/08/02 01:35:31;;;;;;;1.70;1.20;;;;;;;17.71;76.35;100847.31;5002541;28;20037;-79
2022/08/02 01:38:02;;;;;;;1.35;1.15;;;;;;;17.69;76.57;100846.84;5051623;28;20061;-79
2022/08/02 01:40:29;;;;;;;1.17;1.08;;;;;;;17.64;76.01;100853.47;5002905;28;20030;-79
2022/08/02 01:42:56;;;;;;;1.92;1.30;;;;;;;17.64;76.39;100847.03;5018830;28;20030;-80
2022/08/02 01:45:25;;;;;;;1.40;1.17;;;;;;;17.59;76.53;100838.75;4986477;28;20370;-79
2022/08/02 01:47:51;;;;;;;1.60;1.30;;;;;;;17.60;76.35;100841.22;4986563;28;20025;-79
2022/08/02 01:50:17;;;;;;;3.17;1.20;;;;;;;17.57;76.30;100833.47;5002154;28;20044;-79
2022/08/02 01:52:46;;;;;;;2.00;1.13;;;;;;;17.55;76.51;100832.16;5018505;28;20042;-79
2022/08/02 01:55:12;;;;;;;1.98;1.30;;;;;;;17.55;76.40;100832.16;5002076;28;20029;-79
2022/08/02 01:58:03;;;;;;;1.55;1.20;;;;;;;17.55;76.10;100818.09;5034817;28;20088;-79
2022/08/02 02:00:30;;;;;;;1.40;1.20;;;;;;;17.49;76.12;100822.25;4999793;28;20060;-79
2022/08/02 02:02:56;;;;;;;3.08;1.38;;;;;;;17.47;76.24;100817.00;5002213;28;20053;-79
2022/08/02 02:05:24;;;;;;;1.10;1.00;;;;;;;17.44;76.57;100812.03;5018672;28;20037;-79
2022/08/02 02:07:51;;;;;;;2.17;1.23;;;;;;;17.43;76.73;100818.81;4985915;28;20473;-79
2022/08/02 02:10:20;;;;;;;1.48;1.20;;;;;;;17.41;76.54;100809.88;5018645;28;20037;-79
2022/08/02 02:12:47;;;;;;;1.30;1.15;;;;;;;17.38;76.76;100804.94;5018373;28;20037;-79
2022/08/02 02:15:12;;;;;;;1.50;1.20;;;;;;;17.36;77.01;100804.47;5015431;28;20390;-79
2022/08/02 02:17:39;;;;;;;2.58;1.48;;;;;;;17.32;76.70;100801.47;5018206;28;20029;-79
2022/08/02 02:20:05;;;;;;;1.65;1.30;;;;;;;17.28;76.72;100805.31;4985847;28;20489;-79
2022/08/02 02:22:31;;;;;;;1.17;1.08;;;;;;;17.27;76.93;100807.25;5035008;28;20772;-79
2022/08/02 02:24:57;;;;;;;1.55;1.23;;;;;;;17.27;76.72;100803.63;5031922;28;20059;-79
2022/08/02 02:27:23;;;;;;;1.80;1.25;;;;;;;17.24;76.83;100805.13;5018502;28;20037;-79
2022/08/02 02:29:49;;;;;;;1.42;1.20;;;;;;;17.20;77.21;100804.97;5018426;28;20037;-79
2022/08/02 02:32:15;;;;;;;1.80;1.30;;;;;;;17.16;77.26;100804.00;5011832;28;20034;-81
2022/08/02 02:34:42;;;;;;;1.77;1.45;;;;;;;17.14;77.19;100809.09;5032894;28;20033;-79
2022/08/02 02:37:13;;;;;;;2.08;1.30;;;;;;;17.15;77.31;100801.50;5001751;28;20079;-80
2022/08/02 02:39:38;;;;;;;1.58;1.20;;;;;;;17.13;77.36;100804.66;5002301;28;20029;-79
2022/08/02 02:42:07;;;;;;;3.42;1.30;;;;;;;17.11;77.16;100806.97;5018318;28;20033;-79
2022/08/02 02:44:32;;;;;;;2.08;1.55;;;;;;;17.08;77.55;100807.63;5018159;28;20112;-80
2022/08/02 02:46:58;;;;;;;2.03;1.20;;;;;;;17.07;78.03;100805.13;4985247;28;20132;-79
2022/08/02 02:49:23;;;;;;;1.67;1.20;;;;;;;17.01;77.97;100804.47;5001980;28;20033;-79
2022/08/02 02:51:49;;;;;;;1.90;1.00;;;;;;;17.02;77.45;100810.91;4998326;28;20033;-80
2022/08/02 02:54:15;;;;;;;1.50;1.35;;;;;;;16.96;77.17;100810.25;5001648;28;20022;-80
2022/08/02 02:56:40;;;;;;;1.73;1.10;;;;;;;16.95;77.87;100803.00;4985270;28;20068;-80
2022/08/02 02:59:06;;;;;;;2.08;1.42;;;;;;;16.93;77.60;100799.69;5050522;28;20029;-79
2022/08/02 03:01:32;;;;;;;2.75;1.83;;;;;;;16.89;77.75;100793.91;5001594;28;20397;-79
2022/08/02 03:04:05;;;;;;;1.90;1.50;;;;;;;16.90;77.78;100794.75;4985417;28;20033;-79
2022/08/02 03:06:31;;;;;;;2.13;1.65;;;;;;;16.85;78.40;100797.72;4997295;28;20040;-79
2022/08/02 03:08:57;;;;;;;2.25;1.60;;;;;;;16.84;78.66;100794.09;4985351;28;20021;-79
2022/08/02 03:11:23;;;;;;;2.13;1.67;;;;;;;16.82;79.05;100792.75;5018334;28;20033;-79
2022/08/02 03:13:48;;;;;;;2.78;1.85;;;;;;;16.82;78.68;100789.97;5021348;28;20036;-79
2022/08/02 03:16:14;;;;;;;2.75;1.63;;;;;;;16.84;78.42;100791.28;5021598;28;20025;-79
2022/08/02 03:18:41;;;;;;;1.75;1.35;;;;;;;16.78;79.12;100786.19;5021283;28;20029;-80
2022/08/02 03:21:12;;;;;;;3.00;1.60;;;;;;;16.79;78.85;100783.03;5033780;28;20148;-80
2022/08/02 03:23:41;;;;;;;2.05;1.60;;;;;;;16.74;78.18;100780.34;5005968;28;20036;-79
2022/08/02 03:26:07;;;;;;;2.80;1.70;;;;;;;16.74;78.71;100781.19;5022581;28;20029;-79
2022/08/02 03:28:33;;;;;;;4.03;1.98;;;;;;;16.68;79.50;100776.06;5037482;28;20053;-79
2022/08/02 03:30:59;;;;;;;2.83;2.10;;;;;;;16.65;79.13;100782.31;5020884;28;20060;-79
2022/08/02 03:33:25;;;;;;;2.15;1.92;;;;;;;16.70;79.53;100773.75;5021427;28;20544;-79
2022/08/02 03:35:52;;;;;;;2.90;2.00;;;;;;;16.65;78.79;100771.09;5004834;28;20033;-79
2022/08/02 03:38:18;;;;;;;1.92;1.73;;;;;;;16.64;79.48;100773.09;5020906;28;20033;-79
2022/08/02 03:40:44;;;;;;;2.30;1.77;;;;;;;16.61;79.15;100772.94;5021074;28;20088;-79
2022/08/02 03:43:09;;;;;;;2.28;1.75;;;;;;;16.59;78.87;100769.63;5004639;28;20515;-79
2022/08/02 03:45:37;;;;;;;2.33;2.00;;;;;;;16.57;79.28;100764.34;5020767;28;20095;-80
2022/08/02 03:48:02;;;;;;;2.85;1.67;;;;;;;16.54;79.01;100763.00;5004577;28;20364;-79
2022/08/02 03:50:28;;;;;;;2.08;1.70;;;;;;;16.54;79.44;100771.41;5021072;28;20075;-79
2022/08/02 03:52:53;;;;;;;2.10;1.85;;;;;;;16.52;79.52;100772.94;5020663;28;20445;-79
2022/08/02 03:55:19;;;;;;;1.83;1.70;;;;;;;16.50;79.29;100770.44;5037079;28;20029;-79
2022/08/02 03:57:44;;;;;;;2.13;1.50;;;;;;;16.48;79.75;100769.13;5020515;28;20053;-79
2022/08/02 04:00:12;;;;;;;2.72;1.85;;;;;;;16.48;79.33;100778.34;5020533;28;20041;-79
2022/08/02 04:02:37;;;;;;;2.58;1.55;;;;;;;16.45;78.79;100790.22;5045470;28;20497;-79
2022/08/02 04:05:03;;;;;;;1.85;1.75;;;;;;;16.44;79.10;100782.97;5004046;28;20219;-79
2022/08/02 04:07:29;;;;;;;2.08;1.60;;;;;;;16.43;79.03;100780.47;5004256;28;20087;-79
2022/08/02 04:09:54;;;;;;;2.35;1.60;;;;;;;16.42;78.84;100784.44;5037321;28;20021;-79
2022/08/02 04:12:20;;;;;;;2.28;1.70;;;;;;;16.41;79.21;100785.56;5036752;28;20076;-79
2022/08/02 04:14:45;;;;;;;2.50;1.70;;;;;;;16.38;79.23;100783.44;5004134;28;20029;-79
2022/08/02 04:17:11;;;;;;;1.70;1.60;;;;;;;16.37;79.01;100787.41;5004273;28;20044;-79
2022/08/02 04:19:41;;;;;;;1.70;1.60;;;;;;;16.33;79.60;100784.44;5003411;28;20059;-79
2022/08/02 04:22:12;;;;;;;2.70;1.60;;;;;;;16.31;79.34;100784.75;5036771;28;20126;-79
2022/08/02 04:24:40;;;;;;;2.45;1.80;;;;;;;16.31;79.44;100783.94;4989715;28;20034;-79
2022/08/02 04:27:06;;;;;;;2.00;1.40;;;;;;;16.28;79.26;100788.19;5021331;28;20029;-79
2022/08/02 04:29:31;;;;;;;1.48;1.30;;;;;;;16.27;79.33;100778.16;5000460;28;20473;-79
2022/08/02 04:31:57;;;;;;;2.40;1.50;;;;;;;16.28;79.28;100784.56;5014507;28;20042;-79
2022/08/02 04:34:22;;;;;;;2.60;1.40;;;;;;;16.25;79.65;100783.25;5020137;28;20386;-79
2022/08/02 04:36:48;;;;;;;2.13;1.58;;;;;;;16.22;79.37;100780.28;5019777;28;20032;-79
2022/08/02 04:39:13;;;;;;;2.53;1.35;;;;;;;16.21;79.67;100778.59;5003398;28;20021;-79
2022/08/02 04:41:39;;;;;;;1.52;1.42;;;;;;;16.20;79.89;100782.56;5019914;28;20052;-79
2022/08/02 04:44:05;;;;;;;1.50;1.40;;;;;;;16.23;79.43;100779.94;5016505;28;20456;-79
2022/08/02 04:46:31;;;;;;;1.40;1.30;;;;;;;16.15;79.62;100775.13;5034089;28;20025;-79
2022/08/02 04:48:56;;;;;;;1.38;1.27;;;;;;;16.16;79.75;100776.81;5003587;28;20104;-79
2022/08/02 04:51:22;;;;;;;1.70;1.33;;;;;;;16.14;79.67;100781.91;5019467;28;20036;-79
2022/08/02 04:53:47;;;;;;;2.42;1.45;;;;;;;16.12;79.76;100775.78;5003138;28;20029;-79
2022/08/02 04:56:13;;;;;;;1.60;1.40;;;;;;;16.11;79.88;100785.34;5002939;28;20502;-79
2022/08/02 04:58:38;;;;;;;1.67;1.58;;;;;;;16.11;79.97;100785.34;5000464;28;20034;-79
2022/08/02 05:01:04;;;;;;;1.80;1.38;;;;;;;16.12;80.61;100781.41;4987290;28;20029;-78
2022/08/02 05:03:29;;;;;;;2.63;1.60;;;;;;;16.17;81.05;100788.84;5035978;28;20041;-79
2022/08/02 05:05:55;;;;;;;2.58;1.30;;;;;;;16.19;80.44;100781.75;5003087;28;20096;-79
2022/08/02 05:08:21;;;;;;;2.30;1.80;;;;;;;16.21;81.89;100790.63;5036156;28;20112;-79
2022/08/02 05:10:46;;;;;;;1.95;1.30;;;;;;;16.24;82.56;100783.56;5019329;28;20021;-79
2022/08/02 05:13:11;;;;;;;1.98;1.50;;;;;;;16.29;82.54;100792.66;4986811;28;20041;-79
2022/08/02 05:15:37;;;;;;;2.58;1.50;;;;;;;16.35;81.82;100800.91;4988212;28;20033;-79
2022/08/02 05:18:03;;;;;;;3.05;1.50;;;;;;;16.40;83.31;100797.94;4999576;28;20026;-79
2022/08/02 05:20:28;;;;;;;2.25;1.52;;;;;;;16.47;84.07;100796.31;5015630;28;20446;-79
2022/08/02 05:22:53;;;;;;;2.70;1.45;;;;;;;16.54;83.57;100801.44;5019374;28;20045;-79
2022/08/02 05:25:19;;;;;;;1.60;1.50;;;;;;;16.61;85.54;100796.19;4988843;28;20084;-79
2022/08/02 05:27:45;;;;;;;2.03;1.60;;;;;;;16.73;84.55;100799.16;5019932;28;20026;-79
2022/08/02 05:30:11;;;;;;;1.85;1.58;;;;;;;16.81;85.40;100802.34;5027969;28;20563;-80
2022/08/02 05:32:44;;;;;;;1.40;1.30;;;;;;;16.92;84.72;100806.47;5019078;28;20029;-80
2022/08/02 05:35:09;;;;;;;2.20;1.40;;;;;;;17.02;84.64;100808.97;4985580;28;20116;-80
2022/08/02 05:37:35;;;;;;;1.80;1.40;;;;;;;17.14;84.62;100811.09;5035300;28;20042;-80
2022/08/02 05:40:01;;;;;;;1.67;1.27;;;;;;;17.26;84.53;100816.84;5002279;28;20029;-79
2022/08/02 05:42:26;;;;;;;1.60;1.50;;;;;;;17.38;84.40;100822.63;5035244;28;20026;-79
2022/08/02 05:44:52;;;;;;;1.48;1.27;;;;;;;17.51;85.22;100814.34;5002040;28;20085;-79
2022/08/02 05:47:17;;;;;;;2.33;1.70;;;;;;;17.64;86.30;100811.31;5051698;28;20029;-79
2022/08/02 05:49:43;;;;;;;1.73;1.60;;;;;;;17.76;87.23;100809.81;5009485;28;20057;-79
2022/08/02 05:52:16;;;;;;;2.65;1.65;;;;;;;17.88;85.09;100809.94;5002167;28;20030;-79
2022/08/02 05:54:58;;;;;;;1.88;1.40;;;;;;;18.01;84.46;100816.53;5001963;28;20033;-80
2022/08/02 05:57:37;;;;;;;3.08;1.60;;;;;;;18.15;84.78;100813.50;5049675;28;20053;-80
2022/08/02 06:00:08;;;;;;;3.13;2.17;;;;;;;18.24;88.64;100809.47;5018274;28;20029;-79
2022/08/02 06:02:42;;;;;;;2.70;2.20;;;;;;;18.38;87.71;100814.03;5002775;28;20032;-79
2022/08/02 06:05:20;;;;;;;2.28;2.08;;;;;;;18.51;88.10;100810.16;5019263;28;20033;-80
2022/08/02 06:07:47;;;;;;;2.67;2.47;;;;;;;18.65;86.81;100815.50;5014710;28;20029;-80
2022/08/02 06:10:13;;;;;;;4.28;2.10;;;;;;;18.80;83.60;100814.09;5018612;28;20033;-80
2022/08/02 06:12:49;;;;;;;3.42;2.30;;;;;;;18.96;82.03;100813.16;5001342;28;20025;-80
2022/08/02 06:15:15;;;;;;;3.63;2.67;;;;;;;19.11;83.46;100810.88;5018352;28;20032;-80
2022/08/02 06:17:40;;;;;;;4.10;2.55;;;;;;;19.23;81.72;100812.94;4985663;28;20072;-79
2022/08/02 06:20:06;;;;;;;2.42;2.22;;;;;;;19.39;81.30;100816.75;4985744;28;20116;-80
2022/08/02 06:22:31;;;;;;;2.22;2.00;;;;;;;19.54;80.34;100818.91;5018184;28;20104;-80
2022/08/02 06:24:57;;;;;;;3.03;2.20;;;;;;;19.68;78.76;100820.63;5018389;28;20037;-79
2022/08/02 06:27:25;;;;;;;3.55;2.10;;;;;;;19.81;78.08;100816.69;5018629;28;20386;-79
2022/08/02 06:29:51;;;;;;;3.90;2.38;;;;;;;19.94;77.63;100821.13;5018284;28;20032;-79
2022/08/02 06:32:19;;;;;;;1.80;1.70;;;;;;;20.07;78.13;100822.81;5019981;28;20040;-80
2022/08/02 06:34:45;;;;;;;1.77;1.50;;;;;;;20.23;76.27;100822.94;5018548;28;20439;-80
2022/08/02 06:37:11;;;;;;;3.90;2.50;;;;;;;20.34;78.26;100809.19;5001493;28;20106;-79
2022/08/02 06:40:15;;;;;;;1.58;1.40;;;;;;;20.50;76.59;100817.75;5034610;28;20032;-66
2022/08/02 06:43:11;;;;;;;2.47;1.95;;;;;;;20.70;75.63;100816.81;5030879;28;20401;-66
2022/08/02 06:45:37;;;;;;;6.15;1.70;;;;;;;20.88;74.07;100817.38;5029616;28;20097;-67
2022/08/02 06:48:03;;;;;;;2.53;1.30;;;;;;;21.04;74.02;100813.81;5005039;28;20367;-67
2022/08/02 06:50:29;;;;;;;3.50;2.00;;;;;;;21.16;73.86;100810.94;5038646;28;20026;-67
2022/08/02 06:52:54;;;;;;;3.75;1.65;;;;;;;21.35;73.03;100810.28;5021788;28;20052;-67
2022/08/02 06:55:20;;;;;;;2.30;1.88;;;;;;;21.52;73.89;100811.97;5005538;28;20076;-67
2022/08/02 06:57:45;;;;;;;2.70;2.10;;;;;;;21.69;73.59;100816.47;5005007;28;20053;-67
2022/08/02 07:00:11;;;;;;;3.33;2.08;;;;;;;21.85;72.29;100818.16;5038228;28;20037;-67
2022/08/02 07:02:38;;;;;;;2.40;1.60;;;;;;;22.05;71.24;100823.91;5022099;28;20040;-67
2022/08/02 07:05:04;;;;;;;2.78;1.80;;;;;;;22.26;70.72;100815.19;4993940;28;20112;-66
2022/08/02 07:07:29;;;;;;;1.95;1.33;;;;;;;22.47;68.16;100818.50;5039488;28;20025;-67
2022/08/02 07:09:55;;;;;;;1.83;1.15;;;;;;;22.67;66.31;100818.56;5021136;28;20036;-67
2022/08/02 07:12:20;;;;;;;1.98;1.20;;;;;;;22.88;66.30;100806.91;5021556;28;20029;-67
2022/08/02 07:14:46;;;;;;;4.57;1.67;;;;;;;22.97;68.24;100811.19;5021379;28;20041;-67
2022/08/02 07:17:12;;;;;;;2.83;1.20;;;;;;;23.20;65.18;100810.44;5021557;28;20489;-67
2022/08/02 07:19:37;;;;;;;1.80;1.15;;;;;;;23.38;65.29;100810.84;5015521;28;20080;-67
2022/08/02 07:22:03;;;;;;;4.03;1.30;;;;;;;23.52;64.99;100804.63;5049419;28;20033;-67
2022/08/02 07:24:28;;;;;;;2.05;1.27;;;;;;;23.63;65.60;100802.81;5021482;28;20037;-67
2022/08/02 07:26:54;;;;;;;2.58;1.30;;;;;;;23.79;65.41;100809.22;5022048;28;20044;-67
2022/08/02 07:29:19;;;;;;;1.85;1.17;;;;;;;23.93;64.90;100807.81;5037270;28;20034;-67
2022/08/02 07:31:45;;;;;;;3.17;1.20;;;;;;;24.13;62.91;100806.59;5038021;28;20037;-67
2022/08/02 07:34:10;;;;;;;3.00;1.63;;;;;;;24.17;63.58;100812.31;5001225;28;20033;-67
2022/08/02 07:36:35;;;;;;;2.33;1.58;;;;;;;24.30;63.75;100803.22;5021183;28;20056;-67
2022/08/02 07:39:01;;;;;;;1.50;1.10;;;;;;;24.48;62.27;100799.84;5004615;28;20033;-67
2022/08/02 07:41:26;;;;;;;1.85;1.15;;;;;;;24.61;62.09;100803.31;5037614;28;20095;-67
2022/08/02 07:43:52;;;;;;;0.98;0.80;;;;;;;24.75;60.63;100804.31;5020809;28;20101;-67
2022/08/02 07:46:17;;;;;;;2.28;1.20;;;;;;;24.88;60.20;100804.94;5021052;28;20037;-67
2022/08/02 07:48:43;;;;;;;1.63;1.00;;;;;;;25.06;59.99;100796.63;5037280;28;20437;-67
2022/08/02 07:51:09;;;;;;;3.03;1.35;;;;;;;25.12;60.20;100797.09;5017494;28;20030;-67
2022/08/02 07:53:34;;;;;;;1.65;0.80;;;;;;;25.31;58.86;100794.13;5037013;28;20036;-68
2022/08/02 07:56:00;;;;;;;1.88;0.80;;;;;;;25.41;58.42;100796.28;5020624;28;20057;-67
2022/08/02 07:58:25;;;;;;;2.35;1.00;;;;;;;25.50;58.22;100798.00;5045359;28;20513;-67
2022/08/02 08:00:51;;;;;;;1.98;1.00;;;;;;;25.63;57.92;100797.34;5037277;28;20284;-67
2022/08/02 08:03:16;;;;;;;2.88;1.02;;;;;;;25.78;57.45;100803.16;5020596;28;20037;-67
2022/08/02 08:05:42;;;;;;;2.25;1.00;;;;;;;25.91;57.25;100801.72;5003868;28;20029;-67
2022/08/02 08:08:07;;;;;;;0.95;0.80;;;;;;;25.98;57.54;100801.75;5020502;28;20044;-67
2022/08/02 08:10:33;;;;;;;2.33;0.80;;;;;;;26.12;56.22;100811.63;5036942;28;20052;-67
2022/08/02 08:12:58;;;;;;;0.90;0.70;;;;;;;26.25;56.00;100810.94;5020263;28;20060;-67
2022/08/02 08:15:24;;;;;;;2.97;0.80;;;;;;;26.38;55.65;100810.63;4988062;28;20025;-67
2022/08/02 08:17:49;;;;;;;1.48;0.70;;;;;;;26.50;54.93;100813.16;5036701;28;20044;-67
2022/08/02 08:20:14;;;;;;;1.42;0.60;;;;;;;26.63;54.46;100807.97;4996917;28;20036;-67
2022/08/02 08:22:40;;;;;;;1.00;0.70;;;;;;;26.75;54.14;100807.69;5020118;28;20026;-67
2022/08/02 08:25:06;;;;;;;1.10;0.80;;;;;;;26.84;54.27;100813.81;5036914;28;20040;-67
2022/08/02 08:27:31;;;;;;;1.20;0.90;;;;;;;26.85;54.04;100809.75;5020433;28;20084;-67
2022/08/02 08:29:56;;;;;;;1.42;0.90;;;;;;;27.01;53.33;100803.72;5003680;28;20025;-67
2022/08/02 08:32:22;;;;;;;1.25;0.60;;;;;;;27.16;53.04;100801.78;5036594;28;20728;-67
2022/08/02 08:34:48;;;;;;;1.67;0.80;;;;;;;27.25;52.35;100790.84;5020015;28;20044;-67
2022/08/02 08:37:14;;;;;;;1.02;0.60;;;;;;;27.40;52.40;100789.66;5019870;28;20024;-66
2022/08/02 08:39:39;;;;;;;2.25;0.75;;;;;;;27.44;52.50;100801.06;5020086;28;20069;-67
2022/08/02 08:42:06;;;;;;;1.25;0.82;;;;;;;27.53;52.03;100787.25;5003507;28;20034;-67
2022/08/02 08:44:33;;;;;;;1.02;0.65;;;;;;;27.66;51.65;100784.81;5019828;28;20486;-67
2022/08/02 08:46:58;;;;;;;1.13;0.60;;;;;;;27.77;51.43;100794.22;5002751;28;20509;-67
2022/08/02 08:49:43;;;;;;;1.20;0.60;;;;;;;27.89;50.91;100786.53;5003623;28;20033;-67
2022/08/02 08:52:09;;;;;;;0.93;0.60;;;;;;;27.97;50.41;100788.16;5033116;28;20037;-67
2022/08/02 08:54:34;;;;;;;1.70;0.85;;;;;;;28.04;50.24;100788.97;5019730;28;20064;-67
2022/08/02 08:57:04;;;;;;;1.02;0.50;;;;;;;28.19;50.22;100789.78;5035932;28;20041;-67
2022/08/02 08:59:30;;;;;;;2.30;0.60;;;;;;;28.21;50.06;100781.63;5019543;28;20049;-67
2022/08/02 09:01:55;;;;;;;0.95;0.63;;;;;;;28.36;49.54;100787.34;5003174;28;20033;-69
2022/08/02 09:04:21;;;;;;;1.10;0.60;;;;;;;28.46;48.96;100786.56;5019417;28;20084;-67
2022/08/02 09:06:46;;;;;;;0.93;0.60;;;;;;;28.62;49.00;100786.13;5003572;28;20089;-67
2022/08/02 09:09:12;;;;;;;1.25;0.40;;;;;;;28.71;48.92;100793.03;5019407;28;20496;-67
2022/08/02 09:11:37;;;;;;;2.08;0.60;;;;;;;28.73;49.08;100781.19;5035886;28;20037;-67
2022/08/02 09:14:03;;;;;;;1.55;0.70;;;;;;;28.74;48.50;100777.91;5019149;28;20436;-67
2022/08/02 09:16:32;;;;;;;1.55;0.60;;;;;;;28.87;48.19;100789.72;5019400;28;20029;-67
2022/08/02 09:18:58;;;;;;;1.75;0.95;;;;;;;28.99;47.70;100785.59;5030224;28;20033;-66
2022/08/02 09:21:24;;;;;;;1.42;0.60;;;;;;;29.14;46.87;100786.38;5033429;28;20048;-66
2022/08/02 09:23:50;;;;;;;2.63;0.60;;;;;;;29.28;46.90;100780.63;5019141;28;20033;-66
2022/08/02 09:26:20;;;;;;;1.02;0.57;;;;;;;29.39;47.09;100781.38;5016251;28;20545;-67
2022/08/02 09:28:48;;;;;;;1.25;0.50;;;;;;;29.40;46.68;100782.19;5030550;28;20029;-67
2022/08/02 09:31:21;;;;;;;2.30;0.75;;;;;;;29.51;46.38;100777.22;5003068;28;20057;-68
2022/08/02 09:33:53;;;;;;;;;;;;;;;29.60;46.63;100771.81;5019358;28;20695;-66
2022/08/02 09:36:19;;;;;;;2.13;0.80;;;;;;;29.72;46.71;100769.75;5028862;28;19923;-69
2022/08/02 09:38:58;;;;;;;2.22;0.70;;;;;;;29.86;46.41;100780.28;4996601;28;20034;-70
2022/08/02 09:41:28;;;;;;;3.35;0.70;;;;;;;29.97;46.36;100778.94;5050810;28;20100;-69
2022/08/02 09:43:55;;;;;;;0.70;0.70;;;;;;;30.09;45.81;100777.66;5018791;28;20103;-70
2022/08/02 09:46:25;;;;;;;1.75;0.63;;;;;;;30.17;45.58;100773.50;5018892;28;20038;-70
2022/08/02 09:48:58;;;;;;;1.80;0.60;;;;;;;30.23;44.92;100771.81;5019348;28;20037;-70
2022/08/02 09:51:34;;;;;;;2.05;0.60;;;;;;;30.31;44.87;100784.00;5019076;28;20037;-70
2022/08/02 09:54:05;;;;;;;6.25;0.65;;;;;;;30.36;44.79;100777.81;5018895;28;20033;-70
2022/08/02 09:56:42;;;;;;;5.03;0.80;;;;;;;30.48;44.72;100774.44;5002116;28;20052;-70
2022/08/02 09:59:09;;;;;;;1.65;0.52;;;;;;;30.50;43.99;100780.53;5018006;28;20124;-70
2022/08/02 10:01:35;;;;;;;2.15;0.70;;;;;;;30.53;43.94;100775.22;5018611;28;20033;-70
2022/08/02 10:04:05;;;;;;;1.45;0.63;;;;;;;30.57;44.08;100778.88;5018333;28;20040;-70
2022/08/02 10:06:30;;;;;;;1.45;0.68;;;;;;;30.76;44.11;100781.13;5014873;28;20029;-70
2022/08/02 10:08:56;;;;;;;3.17;0.98;;;;;;;30.88;43.92;100776.91;5018505;28;20485;-70
2022/08/02 10:11:22;;;;;;;1.55;0.70;;;;;;;30.99;44.27;100777.59;5034982;28;20033;-71
2022/08/02 10:13:48;;;;;;;2.35;0.88;;;;;;;30.99;43.71;100773.91;5002069;28;20034;-70
2022/08/02 10:16:15;;;;;;;3.30;0.73;;;;;;;31.14;43.11;100773.28;5018548;28;20500;-69
2022/08/02 10:18:41;;;;;;;3.75;0.80;;;;;;;31.23;42.79;100771.94;4985823;28;20049;-70
2022/08/02 10:21:14;;;;;;;5.30;0.80;;;;;;;31.25;43.01;100760.88;5017790;28;20032;-70
2022/08/02 10:23:41;;;;;;;5.18;0.85;;;;;;;31.29;42.68;100767.38;5034744;28;20033;-70
2022/08/02 10:26:07;;;;;;;2.00;0.82;;;;;;;31.39;42.76;100764.38;5018582;28;20029;-70
2022/08/02 10:28:33;;;;;;;5.57;1.00;;;;;;;31.47;42.04;100762.22;4985418;28;20048;-70
2022/08/02 10:30:59;;;;;;;4.50;1.00;;;;;;;31.58;42.10;100750.59;5028571;28;20041;-71
2022/08/02 10:33:25;;;;;;;3.83;1.00;;;;;;;31.76;41.81;100759.75;5014441;28;20048;-71
2022/08/02 10:35:51;;;;;;;1.10;0.60;;;;;;;31.79;41.18;100758.88;5033429;28;20437;-71
2022/08/02 10:38:17;;;;;;;1.58;0.70;;;;;;;31.96;41.00;100759.84;5001534;28;20117;-70
2022/08/02 10:40:52;;;;;;;1.17;0.50;;;;;;;32.16;39.92;100757.06;5039114;28;20112;-70
2022/08/02 10:43:30;;;;;;;1.30;0.80;;;;;;;32.40;39.75;100760.72;5017547;28;20033;-70
2022/08/02 10:46:34;;;;;;;1.30;0.60;;;;;;;32.54;38.91;100747.34;5029724;28;20033;-70
2022/08/02 10:49:12;;;;;;;1.60;0.65;;;;;;;32.55;38.67;100752.69;5003799;28;20555;-70
2022/08/02 10:51:57;;;;;;;3.35;0.80;;;;;;;32.65;38.24;100751.66;5018297;28;20033;-70
2022/08/02 10:54:28;;;;;;;2.55;0.52;;;;;;;32.85;38.46;100745.13;5031504;28;20069;-70
2022/08/02 10:56:54;;;;;;;1.73;0.60;;;;;;;32.94;38.46;100751.06;5016574;28;20135;-70
2022/08/02 10:59:29;;;;;;;3.08;0.50;;;;;;;33.01;37.74;100753.81;5000943;28;20371;-70
2022/08/02 11:02:01;;;;;;;1.65;0.60;;;;;;;33.08;37.23;100739.28;5034362;28;20091;-70
2022/08/02 11:04:46;;;;;;;1.48;0.50;;;;;;;33.23;37.77;100734.03;5034743;28;20052;-70
2022/08/02 11:07:16;;;;;;;0.90;0.60;;;;;;;33.32;37.49;100737.13;5032642;28;20029;-70
2022/08/02 11:09:47;;;;;;;1.08;0.50;;;;;;;33.35;37.00;100721.84;5001991;28;20029;-70
2022/08/02 11:12:14;;;;;;;1.25;0.65;;;;;;;33.48;36.91;100735.53;5017968;28;20041;-70
2022/08/02 11:14:41;;;;;;;1.88;0.68;;;;;;;33.60;36.91;100726.22;4985107;28;20068;-70
2022/08/02 11:17:16;;;;;;;1.08;0.60;;;;;;;33.72;36.74;100722.63;5017685;28;20034;-70
2022/08/02 11:20:07;;;;;;;1.58;0.60;;;;;;;33.77;37.03;100722.09;5002636;28;20033;-70
2022/08/02 11:22:32;;;;;;;1.13;0.60;;;;;;;33.90;37.00;100715.59;5034139;28;20061;-71
2022/08/02 11:24:57;;;;;;;1.98;0.50;;;;;;;34.02;37.23;100712.81;5017597;28;20040;-69
2022/08/02 11:27:23;;;;;;;1.58;0.60;;;;;;;34.08;36.36;100712.31;5027693;28;20036;-69